Time;durP1;ratioP1;P1;durP2;ratioP2;P2;SDS_P1;SDS_P2;PMS_P1;PMS_P2;Temp;Humidity;BMP_temperature;BMP_pressure;BME280_temperature;BME280_humidity;BME280_pressure;Samples;Min_cycle;Max_cycle;Signal;HPM_P1;HPM_P2
2023/09/23 00:02:17;;;;;;;5.93;2.30;;;;;;;12.07;70.40;99416.81;5060796;28;20062;-48
2023/09/23 00:04:45;;;;;;;3.33;1.73;;;;;;;12.04;69.89;99422.03;5062018;28;20115;-50
2023/09/23 00:07:12;;;;;;;4.60;1.73;;;;;;;12.02;68.98;99434.19;5070050;28;20056;-51
2023/09/23 00:09:39;;;;;;;4.30;1.35;;;;;;;12.02;69.97;99438.53;5062278;28;20051;-46
2023/09/23 00:12:06;;;;;;;3.40;0.88;;;;;;;12.02;69.82;99443.72;5061966;28;20561;-41
2023/09/23 00:14:33;;;;;;;5.32;1.42;;;;;;;12.03;69.15;99440.25;5067127;28;20105;-49
2023/09/23 00:16:59;;;;;;;4.95;1.67;;;;;;;12.01;70.06;99442.84;5065782;28;20047;-45
2023/09/23 00:19:26;;;;;;;4.35;3.15;;;;;;;12.01;69.67;99445.44;5067424;28;20150;-50
2023/09/23 00:21:54;;;;;;;4.85;0.98;;;;;;;11.98;70.50;99445.50;5063804;28;20413;-49
2023/09/23 00:24:23;;;;;;;2.40;2.17;;;;;;;11.97;68.83;99441.19;5062754;28;20056;-44
2023/09/23 00:26:52;;;;;;;3.47;1.08;;;;;;;11.95;69.98;99448.16;5058607;28;20394;-42
2023/09/23 00:29:24;;;;;;;3.90;1.75;;;;;;;11.93;69.99;99444.75;5053299;28;20537;-46
2023/09/23 00:31:54;;;;;;;3.75;1.83;;;;;;;11.91;69.58;99441.31;5055780;28;20134;-44
2023/09/23 00:34:23;;;;;;;3.33;1.65;;;;;;;11.86;69.81;99438.81;5056374;28;20099;-47
2023/09/23 00:36:51;;;;;;;2.08;1.63;;;;;;;11.82;69.00;99443.19;5060056;28;20040;-47
2023/09/23 00:39:19;;;;;;;2.20;2.00;;;;;;;11.76;70.60;99448.47;5054793;28;20156;-46
2023/09/23 00:41:46;;;;;;;3.67;1.77;;;;;;;11.70;69.09;99458.97;5057128;28;20048;-48
2023/09/23 00:44:14;;;;;;;2.35;1.55;;;;;;;11.66;69.84;99452.13;5056396;28;20040;-46
2023/09/23 00:46:44;;;;;;;3.20;1.88;;;;;;;11.64;70.05;99461.66;5056566;28;20064;-49
2023/09/23 00:49:13;;;;;;;5.47;1.73;;;;;;;11.61;70.21;99466.88;5039614;28;20044;-45
2023/09/23 00:51:41;;;;;;;4.47;1.50;;;;;;;11.57;70.75;99469.56;5056797;28;20529;-48
2023/09/23 00:54:08;;;;;;;5.43;1.70;;;;;;;11.54;70.23;99461.81;5055043;28;20541;-50
2023/09/23 00:56:37;;;;;;;2.90;1.67;;;;;;;11.54;69.86;99471.31;5056374;28;20076;-56
2023/09/23 00:59:06;;;;;;;4.55;2.47;;;;;;;11.52;70.59;99470.50;5056485;28;20519;-41
2023/09/23 01:01:34;;;;;;;4.43;1.45;;;;;;;11.50;70.81;99464.47;5059292;28;20110;-45
2023/09/23 01:04:01;;;;;;;5.78;2.05;;;;;;;11.47;70.53;99475.75;5059150;28;20041;-44
2023/09/23 01:06:28;;;;;;;5.10;1.80;;;;;;;11.47;69.84;99475.75;5061617;28;20524;-43
2023/09/23 01:08:57;;;;;;;2.13;1.90;;;;;;;11.43;69.68;99476.69;5058757;28;20048;-50
2023/09/23 01:11:26;;;;;;;3.78;1.70;;;;;;;11.40;70.60;99476.72;5055879;28;20052;-44
2023/09/23 01:13:52;;;;;;;4.72;1.70;;;;;;;11.38;70.30;99478.50;5067563;28;20070;-49
2023/09/23 01:16:21;;;;;;;3.55;1.77;;;;;;;11.36;70.18;99485.44;5070348;28;20048;-48
2023/09/23 01:18:49;;;;;;;3.28;1.77;;;;;;;11.32;69.89;99480.28;5065011;28;20499;-42
2023/09/23 01:21:16;;;;;;;2.30;1.65;;;;;;;11.30;70.96;99482.06;5057782;28;20506;-47
2023/09/23 01:23:44;;;;;;;5.78;1.90;;;;;;;11.31;70.09;99488.09;5060683;28;20569;-51
2023/09/23 01:26:11;;;;;;;4.30;1.73;;;;;;;11.30;70.09;99487.25;5059659;28;20056;-43
2023/09/23 01:28:38;;;;;;;4.10;1.35;;;;;;;11.31;71.18;99488.09;5039864;28;20143;-47
2023/09/23 01:31:05;;;;;;;3.95;1.55;;;;;;;11.32;70.13;99485.47;5045017;28;20133;-45
2023/09/23 01:33:34;;;;;;;4.57;1.58;;;;;;;11.32;70.77;99495.84;5060257;28;20044;-44
2023/09/23 01:36:03;;;;;;;5.03;1.67;;;;;;;11.33;70.56;99491.53;5068376;28;20562;-48
2023/09/23 01:38:31;;;;;;;3.65;1.27;;;;;;;11.31;69.87;99494.13;5061314;28;20052;-42
2023/09/23 01:41:01;;;;;;;2.72;1.98;;;;;;;11.35;70.27;99488.91;5059583;28;20563;-50
2023/09/23 01:43:29;;;;;;;3.25;1.75;;;;;;;11.36;69.61;99491.50;5063193;28;20197;-48
2023/09/23 01:46:02;;;;;;;4.70;2.88;;;;;;;11.40;71.09;99492.28;5063233;28;20139;-48
2023/09/23 01:48:29;;;;;;;4.60;2.10;;;;;;;11.43;70.99;99500.03;5067574;28;20055;-51
2023/09/23 01:50:58;;;;;;;5.32;1.77;;;;;;;11.43;71.23;99494.84;5068998;28;20048;-52
2023/09/23 01:53:27;;;;;;;3.78;1.48;;;;;;;11.44;70.19;99509.50;5061920;28;20123;-47
2023/09/23 01:55:55;;;;;;;5.00;1.30;;;;;;;11.43;70.71;99507.81;5059178;28;20052;-47
2023/09/23 01:58:22;;;;;;;2.10;2.00;;;;;;;11.42;70.00;99511.28;5058017;28;20139;-46
2023/09/23 02:00:51;;;;;;;6.45;1.48;;;;;;;11.39;70.57;99506.13;5059667;28;20573;-51
2023/09/23 02:03:18;;;;;;;5.15;1.70;;;;;;;11.35;70.81;99514.84;5054768;28;20051;-46
2023/09/23 02:05:46;;;;;;;1.30;0.52;;;;;;;11.31;70.00;99524.38;5057795;28;20599;-45
2023/09/23 02:08:14;;;;;;;4.32;2.00;;;;;;;11.28;70.57;99530.47;5039671;28;20044;-48
2023/09/23 02:10:43;;;;;;;4.90;1.67;;;;;;;11.28;70.83;99527.88;5057692;28;20045;-47
2023/09/23 02:13:10;;;;;;;3.72;1.65;;;;;;;11.24;69.95;99523.63;5058505;28;20052;-45
2023/09/23 02:15:38;;;;;;;4.63;1.77;;;;;;;11.19;69.94;99525.44;5040537;28;20060;-42
2023/09/23 02:18:04;;;;;;;4.00;1.92;;;;;;;11.15;70.10;99524.59;5064323;28;20067;-45
2023/09/23 02:20:31;;;;;;;3.05;1.55;;;;;;;11.13;70.18;99535.88;5056902;28;20806;-48
2023/09/23 02:22:58;;;;;;;3.70;1.23;;;;;;;11.10;70.92;99541.09;5062232;28;20394;-45
2023/09/23 02:25:24;;;;;;;4.32;1.65;;;;;;;11.09;71.26;99554.94;5058927;28;20048;-41
2023/09/23 02:27:53;;;;;;;3.05;1.50;;;;;;;11.07;70.79;99548.94;5059462;28;20044;-50
2023/09/23 02:30:19;;;;;;;4.65;2.28;;;;;;;11.03;71.33;99551.56;5038551;28;20052;-44
2023/09/23 02:32:47;;;;;;;3.33;1.90;;;;;;;11.01;70.28;99553.28;5056986;28;20048;-49
2023/09/23 02:35:15;;;;;;;5.07;2.10;;;;;;;10.99;71.03;99555.06;5057072;28;20059;-44
2023/09/23 02:37:47;;;;;;;4.18;2.00;;;;;;;10.97;70.88;99551.63;5058115;28;20132;-49
2023/09/23 02:40:15;;;;;;;2.30;1.63;;;;;;;10.93;70.82;99556.00;5058157;28;20072;-48
2023/09/23 02:42:44;;;;;;;3.15;1.65;;;;;;;10.92;70.62;99563.78;5058770;28;20040;-47
2023/09/23 02:45:13;;;;;;;4.78;1.77;;;;;;;10.89;70.25;99561.22;5052823;28;20498;-48
2023/09/23 02:47:43;;;;;;;3.17;1.77;;;;;;;10.85;71.02;99568.19;5041914;28;20048;-51
2023/09/23 02:50:13;;;;;;;1.90;1.55;;;;;;;10.80;71.04;99570.81;5041814;28;20483;-48
2023/09/23 02:52:42;;;;;;;2.33;2.03;;;;;;;10.76;70.33;99561.38;5042602;28;20055;-47
2023/09/23 02:55:12;;;;;;;2.50;1.67;;;;;;;10.76;70.39;99563.97;5042294;28;20047;-47
2023/09/23 02:57:41;;;;;;;4.38;2.17;;;;;;;10.74;70.86;99570.88;5059158;28;20045;-40
2023/09/23 03:00:29;;;;;;;4.68;1.83;;;;;;;10.73;71.25;99563.97;5058806;28;20048;-49
2023/09/23 03:02:58;;;;;;;4.22;1.35;;;;;;;10.75;71.30;99580.38;5058035;28;20448;-45
2023/09/23 03:05:28;;;;;;;4.38;1.90;;;;;;;10.77;70.42;99586.38;5068750;28;20044;-47
2023/09/23 03:07:58;;;;;;;2.30;1.80;;;;;;;10.78;70.70;99588.09;5056386;28;20131;-49
2023/09/23 03:10:39;;;;;;;3.70;1.70;;;;;;;10.82;71.24;99588.06;5065693;28;20047;-46
2023/09/23 03:13:09;;;;;;;3.58;1.75;;;;;;;10.83;70.44;99587.19;5072506;28;20049;-46
2023/09/23 03:15:50;;;;;;;2.95;1.88;;;;;;;10.78;71.26;99588.09;5068321;28;20051;-49
2023/09/23 03:18:27;;;;;;;7.63;1.80;;;;;;;10.79;70.25;99597.59;5063553;28;20052;-50
2023/09/23 03:20:55;;;;;;;4.22;2.10;;;;;;;10.75;71.05;99588.16;5060193;28;20056;-40
2023/09/23 03:23:23;;;;;;;4.05;2.13;;;;;;;10.73;70.67;99600.25;5046326;28;20052;-44
2023/09/23 03:25:51;;;;;;;5.18;2.38;;;;;;;10.70;70.98;99600.28;5058453;28;20044;-50
2023/09/23 03:28:18;;;;;;;5.68;1.83;;;;;;;10.68;70.98;99607.22;5064401;28;20044;-41
2023/09/23 03:30:48;;;;;;;2.00;0.80;;;;;;;10.70;70.82;99609.81;5056853;28;20405;-44
2023/09/23 03:33:18;;;;;;;1.67;1.58;;;;;;;10.71;71.00;99612.34;5074313;28;20150;-46
2023/09/23 03:35:45;;;;;;;3.30;1.60;;;;;;;10.70;70.55;99615.81;5057573;28;20055;-44
2023/09/23 03:38:13;;;;;;;4.13;2.25;;;;;;;10.71;70.43;99617.53;5063511;28;20748;-46
2023/09/23 03:40:39;;;;;;;4.15;1.13;;;;;;;10.72;71.63;99624.44;5062126;28;20463;-50
2023/09/23 03:43:06;;;;;;;4.93;1.90;;;;;;;10.76;71.01;99625.25;5067528;28;20564;-44
2023/09/23 03:45:35;;;;;;;5.07;2.15;;;;;;;10.80;71.43;99627.81;5068364;28;20803;-44
2023/09/23 03:48:02;;;;;;;6.22;1.25;;;;;;;10.84;71.53;99632.97;5061266;28;21068;-49
2023/09/23 03:50:32;;;;;;;3.70;1.73;;;;;;;10.88;71.67;99639.81;5073901;28;20544;-51
2023/09/23 03:52:59;;;;;;;3.70;1.30;;;;;;;10.90;71.31;99643.25;5064506;28;20624;-53
2023/09/23 03:55:26;;;;;;;3.92;1.38;;;;;;;10.92;72.17;99644.94;5065797;28;20129;-46
2023/09/23 03:57:54;;;;;;;5.78;2.35;;;;;;;10.97;72.25;99649.25;5077085;28;20417;-46
2023/09/23 04:00:21;;;;;;;4.53;2.28;;;;;;;10.99;71.29;99647.47;5067878;28;20122;-48
2023/09/23 04:02:48;;;;;;;7.22;1.65;;;;;;;10.99;71.98;99653.53;5071245;28;20051;-47
2023/09/23 04:05:15;;;;;;;3.65;1.85;;;;;;;10.99;71.21;99658.72;5070446;28;20071;-46
2023/09/23 04:07:50;;;;;;;4.45;1.85;;;;;;;10.97;71.01;99663.03;5071927;28;20098;-48
2023/09/23 04:10:19;;;;;;;3.80;2.10;;;;;;;10.97;71.71;99669.97;5056433;28;20056;-55
2023/09/23 04:12:46;;;;;;;5.78;2.47;;;;;;;10.97;71.56;99670.81;5066701;28;20113;-47
2023/09/23 04:15:13;;;;;;;5.93;1.52;;;;;;;10.96;71.92;99663.91;5056417;28;20048;-50
2023/09/23 04:17:39;;;;;;;5.45;1.63;;;;;;;10.98;71.70;99676.88;5078390;28;20106;-46
2023/09/23 04:20:09;;;;;;;4.63;1.92;;;;;;;10.98;70.90;99672.53;5066800;28;20044;-47
2023/09/23 04:22:37;;;;;;;3.17;1.67;;;;;;;10.99;71.18;99679.44;5067502;28;20048;-52
2023/09/23 04:25:06;;;;;;;4.55;2.03;;;;;;;10.98;70.78;99675.13;5066928;28;20060;-50
2023/09/23 04:27:33;;;;;;;3.28;1.38;;;;;;;10.97;70.90;99670.81;5053177;28;20044;-52
2023/09/23 04:30:01;;;;;;;2.97;1.95;;;;;;;10.98;71.60;99682.88;5063965;28;20137;-49
2023/09/23 04:32:28;;;;;;;4.35;1.85;;;;;;;10.95;70.66;99690.72;5074283;28;20075;-47
2023/09/23 04:34:56;;;;;;;3.00;1.73;;;;;;;10.96;71.48;99695.00;5065826;28;20055;-46
2023/09/23 04:37:23;;;;;;;3.67;2.10;;;;;;;10.96;71.46;99700.19;5065027;28;20044;-47
2023/09/23 04:39:50;;;;;;;3.42;1.45;;;;;;;10.98;71.46;99692.41;5062028;28;20097;-47
2023/09/23 04:42:17;;;;;;;3.15;2.08;;;;;;;11.00;71.36;99706.19;5063007;28;20052;-48
2023/09/23 04:44:44;;;;;;;6.28;1.08;;;;;;;11.01;70.76;99706.19;5062389;28;20390;-52
2023/09/23 04:47:12;;;;;;;3.65;1.50;;;;;;;11.01;70.87;99708.78;5064822;28;20141;-47
2023/09/23 04:49:40;;;;;;;4.30;2.03;;;;;;;11.00;71.67;99712.25;5060174;28;20058;-50
2023/09/23 04:52:07;;;;;;;2.90;2.42;;;;;;;10.99;70.59;99714.84;5058279;28;20056;-46
2023/09/23 04:54:34;;;;;;;3.72;2.13;;;;;;;10.99;70.74;99726.09;5065356;28;20134;-48
2023/09/23 04:57:02;;;;;;;5.65;1.52;;;;;;;11.02;71.74;99726.03;5063154;28;20045;-48
2023/09/23 04:59:32;;;;;;;3.08;2.22;;;;;;;11.02;71.65;99726.03;5062164;28;20548;-47
2023/09/23 05:02:00;;;;;;;4.05;1.65;;;;;;;11.04;70.70;99733.78;5069504;28;20679;-48
2023/09/23 05:04:27;;;;;;;4.13;2.20;;;;;;;11.02;71.64;99739.00;5072161;28;20195;-48
2023/09/23 05:06:54;;;;;;;4.80;3.03;;;;;;;11.00;70.83;99738.16;5066213;28;20055;-48
2023/09/23 05:09:20;;;;;;;4.38;1.90;;;;;;;10.98;70.52;99750.25;5059950;28;20052;-46
2023/09/23 05:11:47;;;;;;;5.63;1.95;;;;;;;10.98;71.50;99750.25;5057536;28;20041;-44
2023/09/23 05:14:17;;;;;;;2.75;2.00;;;;;;;10.98;71.12;99750.25;5065055;28;20051;-48
2023/09/23 05:16:44;;;;;;;3.55;2.08;;;;;;;10.99;70.81;99754.59;5070136;28;20054;-52
2023/09/23 05:19:11;;;;;;;3.03;2.65;;;;;;;11.00;70.50;99752.84;5069604;28;20044;-43
2023/09/23 05:21:39;;;;;;;3.75;2.13;;;;;;;10.98;71.46;99760.63;5072914;28;20051;-49
2023/09/23 05:24:09;;;;;;;3.58;1.73;;;;;;;10.98;71.12;99771.00;5072368;28;20052;-45
2023/09/23 05:26:36;;;;;;;4.45;2.08;;;;;;;10.98;71.35;99765.81;5054046;28;20052;-47
2023/09/23 05:29:03;;;;;;;4.57;1.77;;;;;;;10.97;71.17;99758.91;5067699;28;20040;-50
2023/09/23 05:31:30;;;;;;;3.85;1.88;;;;;;;10.98;71.27;99772.75;5072939;28;20053;-53
2023/09/23 05:33:57;;;;;;;2.85;2.10;;;;;;;10.95;71.54;99776.22;5066800;28;21563;-47
2023/09/23 05:36:27;;;;;;;2.70;1.60;;;;;;;10.93;70.94;99772.78;5066672;28;20045;-47
2023/09/23 05:38:54;;;;;;;5.68;1.85;;;;;;;10.92;70.86;99781.44;5064627;28;20045;-48
2023/09/23 05:41:23;;;;;;;3.08;1.92;;;;;;;10.89;71.01;99777.13;5072763;28;20044;-45
2023/09/23 05:43:52;;;;;;;2.40;2.20;;;;;;;10.86;70.93;99782.34;5071174;28;20048;-49
2023/09/23 05:46:19;;;;;;;3.90;0.95;;;;;;;10.83;70.44;99797.91;5069867;28;20721;-50
2023/09/23 05:48:49;;;;;;;4.05;1.90;;;;;;;10.82;70.50;99795.31;5068433;28;20055;-46
2023/09/23 05:51:15;;;;;;;4.72;2.25;;;;;;;10.80;70.41;99803.09;5067039;28;20105;-42
2023/09/23 05:53:43;;;;;;;4.75;1.98;;;;;;;10.79;71.18;99812.63;5067447;28;20522;-46
2023/09/23 05:56:09;;;;;;;3.90;2.10;;;;;;;10.78;70.97;99804.88;5058080;28;20053;-48
2023/09/23 05:58:36;;;;;;;3.70;1.52;;;;;;;10.73;70.46;99804.88;5070240;28;20041;-47
2023/09/23 06:01:03;;;;;;;2.70;2.05;;;;;;;10.72;71.07;99810.94;5066407;28;20055;-48
2023/09/23 06:03:30;;;;;;;4.50;1.85;;;;;;;10.71;71.06;99811.78;5070402;28;20530;-43
2023/09/23 06:05:58;;;;;;;1.88;1.45;;;;;;;10.72;70.70;99812.66;5066430;28;20044;-47
2023/09/23 06:08:25;;;;;;;5.60;1.90;;;;;;;10.74;71.25;99814.38;5063887;28;20036;-48
2023/09/23 06:10:52;;;;;;;4.13;1.05;;;;;;;10.77;71.54;99827.31;5065428;28;20400;-43
2023/09/23 06:13:19;;;;;;;4.65;2.13;;;;;;;10.79;71.12;99823.00;5069207;28;20048;-45
2023/09/23 06:15:45;;;;;;;4.00;2.05;;;;;;;10.83;70.55;99834.16;5077876;28;20048;-48
2023/09/23 06:18:12;;;;;;;4.57;1.92;;;;;;;10.89;71.32;99841.03;5066596;28;20094;-44
2023/09/23 06:20:39;;;;;;;3.97;2.17;;;;;;;10.93;70.50;99845.31;5066640;28;20082;-49
2023/09/23 06:23:06;;;;;;;7.03;2.10;;;;;;;11.00;70.92;99841.81;5057667;28;20520;-48
2023/09/23 06:25:32;;;;;;;3.45;2.25;;;;;;;11.03;70.31;99841.81;5068925;28;20076;-50
2023/09/23 06:27:59;;;;;;;6.40;1.75;;;;;;;11.10;70.40;99846.91;5063169;28;20044;-46
2023/09/23 06:30:26;;;;;;;4.05;2.00;;;;;;;11.13;70.44;99852.09;5070571;28;20137;-49
2023/09/23 06:32:53;;;;;;;5.10;1.95;;;;;;;11.17;70.97;99852.06;5061973;28;20051;-46
2023/09/23 06:35:20;;;;;;;3.58;1.50;;;;;;;11.21;70.34;99852.88;5042557;28;20052;-50
2023/09/23 06:37:46;;;;;;;4.47;2.85;;;;;;;11.22;69.97;99862.41;5058162;28;20045;-51
2023/09/23 06:40:14;;;;;;;3.90;1.92;;;;;;;11.21;70.99;99867.59;5060954;28;20044;-47
2023/09/23 06:42:41;;;;;;;4.90;2.05;;;;;;;11.19;70.06;99873.63;5066224;28;20047;-48
2023/09/23 06:45:09;;;;;;;3.53;1.88;;;;;;;11.20;70.32;99871.91;5065577;28;20052;-47
2023/09/23 06:47:37;;;;;;;5.25;1.98;;;;;;;11.19;70.87;99873.63;5061437;28;20078;-48
2023/09/23 06:50:04;;;;;;;4.25;2.15;;;;;;;11.17;71.13;99874.50;5061151;28;20131;-45
2023/09/23 06:52:31;;;;;;;7.47;3.58;;;;;;;11.15;70.39;99876.28;5063411;28;20791;-50
2023/09/23 06:54:59;;;;;;;5.22;1.58;;;;;;;11.14;71.05;99875.41;5068410;28;20064;-46
2023/09/23 06:57:26;;;;;;;3.38;1.85;;;;;;;11.18;70.21;99884.03;5065203;28;20055;-49
2023/09/23 06:59:52;;;;;;;5.20;2.97;;;;;;;11.23;70.77;99884.84;5068690;28;20044;-49
2023/09/23 07:02:19;;;;;;;2.63;1.67;;;;;;;11.25;69.86;99885.69;5060858;28;20584;-47
2023/09/23 07:04:47;;;;;;;3.40;1.80;;;;;;;11.32;70.63;99884.75;5065307;28;20048;-46
2023/09/23 07:07:14;;;;;;;4.05;1.67;;;;;;;11.36;69.62;99895.09;5066725;28;20544;-52
2023/09/23 07:09:41;;;;;;;8.55;2.67;;;;;;;11.43;70.79;99901.97;5058031;28;20040;-43
2023/09/23 07:12:10;;;;;;;3.75;1.80;;;;;;;11.49;70.76;99896.75;5066263;28;20139;-44
2023/09/23 07:14:37;;;;;;;3.75;2.05;;;;;;;11.69;70.60;99898.28;5062049;28;20048;-50
2023/09/23 07:17:04;;;;;;;5.55;1.92;;;;;;;12.12;70.37;99916.91;5048484;28;20051;-49
2023/09/23 07:19:31;;;;;;;3.63;1.80;;;;;;;12.64;68.82;99919.72;5067332;28;20075;-48
2023/09/23 07:21:58;;;;;;;3.50;1.65;;;;;;;13.17;68.34;99919.81;5057728;28;20048;-49
2023/09/23 07:24:26;;;;;;;3.22;1.35;;;;;;;13.41;67.33;99927.28;5060615;28;20041;-45
2023/09/23 07:26:54;;;;;;;4.43;2.00;;;;;;;13.58;66.06;99934.84;5076240;28;20054;-50
2023/09/23 07:29:21;;;;;;;3.25;1.77;;;;;;;13.80;66.64;99940.53;5071477;28;20052;-47
2023/09/23 07:31:48;;;;;;;3.40;2.50;;;;;;;14.19;66.04;99941.56;5070731;28;20131;-48
2023/09/23 07:34:14;;;;;;;5.90;2.20;;;;;;;14.42;65.33;99948.06;5070570;28;20044;-45
2023/09/23 07:36:42;;;;;;;7.72;1.88;;;;;;;14.51;64.83;99947.84;5077025;28;20079;-46
2023/09/23 07:39:10;;;;;;;3.38;2.45;;;;;;;14.47;64.87;99952.28;5052191;28;20048;-43
2023/09/23 07:41:37;;;;;;;3.90;2.25;;;;;;;14.34;64.49;99954.28;5076528;28;20040;-49
2023/09/23 07:44:04;;;;;;;5.82;1.83;;;;;;;14.22;64.90;99955.34;5075040;28;20049;-52
2023/09/23 07:46:32;;;;;;;2.20;1.60;;;;;;;14.16;65.06;99962.44;5077385;28;20048;-50
2023/09/23 07:48:59;;;;;;;3.92;2.00;;;;;;;14.10;64.48;99969.50;5068254;28;20127;-43
2023/09/23 07:51:25;;;;;;;3.80;1.80;;;;;;;14.07;65.48;99969.53;5071221;28;20050;-50
2023/09/23 07:53:52;;;;;;;2.60;1.15;;;;;;;14.37;64.99;99972.47;5080542;28;20506;-46
2023/09/23 07:56:19;;;;;;;4.05;2.47;;;;;;;15.32;64.91;99972.19;5068721;28;20048;-53
2023/09/23 07:58:46;;;;;;;8.02;2.58;;;;;;;16.43;63.82;99972.88;5076045;28;20210;-50
2023/09/23 08:01:12;;;;;;;4.03;1.80;;;;;;;17.51;61.75;99976.63;5072408;28;20048;-50
2023/09/23 08:03:39;;;;;;;4.80;1.73;;;;;;;18.47;59.91;99980.34;5077076;28;20130;-49
2023/09/23 08:06:06;;;;;;;2.97;1.48;;;;;;;19.33;58.45;99987.63;5072916;28;20055;-46
2023/09/23 08:08:32;;;;;;;3.65;1.85;;;;;;;20.03;56.72;99992.69;5071662;28;20045;-45
2023/09/23 08:10:59;;;;;;;5.05;2.15;;;;;;;20.72;55.93;99995.78;5083182;28;20142;-45
2023/09/23 08:13:26;;;;;;;3.30;2.00;;;;;;;21.28;54.37;100002.88;5067737;28;20045;-52
2023/09/23 08:16:00;;;;;;;4.35;2.20;;;;;;;21.87;53.55;100005.28;5072910;28;20506;-54
2023/09/23 08:18:27;;;;;;;3.25;1.73;;;;;;;22.28;51.57;100011.97;5086977;28;20164;-51
2023/09/23 08:20:56;;;;;;;1.35;0.82;;;;;;;22.65;51.02;100010.97;5079962;28;20378;-45
2023/09/23 08:23:24;;;;;;;3.45;2.42;;;;;;;23.00;50.03;100013.44;5081573;28;20048;-52
2023/09/23 08:25:50;;;;;;;2.58;2.03;;;;;;;23.34;49.48;100014.19;5076268;28;20044;-48
2023/09/23 08:28:18;;;;;;;2.72;1.95;;;;;;;23.74;48.62;100023.44;5075556;28;20048;-45
2023/09/23 08:30:46;;;;;;;6.05;1.98;;;;;;;24.04;47.74;100022.56;5065989;28;20048;-50
2023/09/23 08:33:13;;;;;;;4.57;1.92;;;;;;;24.31;46.95;100032.44;5074795;28;20083;-45
2023/09/23 08:35:41;;;;;;;3.38;1.42;;;;;;;24.59;46.14;100041.34;5073873;28;20496;-52
2023/09/23 08:38:08;;;;;;;5.40;1.90;;;;;;;24.88;45.89;100033.41;5075935;28;20044;-49
2023/09/23 08:40:38;;;;;;;4.15;3.17;;;;;;;25.25;45.61;100034.63;5073530;28;20068;-52
2023/09/23 08:43:05;;;;;;;7.47;2.65;;;;;;;25.53;44.53;100043.44;5051020;28;20515;-45
2023/09/23 08:45:32;;;;;;;5.22;2.42;;;;;;;25.64;44.09;100042.75;5058450;28;20510;-48
2023/09/23 08:48:02;;;;;;;4.07;1.95;;;;;;;25.92;43.73;100060.34;5052869;28;20457;-49
2023/09/23 08:50:30;;;;;;;4.03;2.65;;;;;;;26.28;43.65;100065.06;5064691;28;20051;-49
2023/09/23 08:52:58;;;;;;;2.90;1.90;;;;;;;26.67;42.66;100071.19;5079646;28;20421;-50
2023/09/23 08:55:27;;;;;;;3.35;1.98;;;;;;;26.74;41.96;100068.94;5058309;28;20052;-52
2023/09/23 08:57:54;;;;;;;3.65;2.05;;;;;;;26.82;42.07;100073.72;5068015;28;20130;-54
2023/09/23 09:00:21;;;;;;;5.82;2.85;;;;;;;27.03;41.43;100082.00;5071769;28;20040;-43
2023/09/23 09:02:47;;;;;;;2.33;2.05;;;;;;;27.28;41.90;100087.34;5075292;28;20054;-53
2023/09/23 09:05:14;;;;;;;6.15;2.45;;;;;;;27.40;40.51;100083.81;5081175;28;20050;-54
2023/09/23 09:07:41;;;;;;;5.15;1.60;;;;;;;27.52;41.24;100097.16;5082032;28;20040;-52
2023/09/23 09:10:08;;;;;;;4.43;0.63;;;;;;;27.69;39.94;100099.44;5082382;28;20098;-47
2023/09/23 09:12:35;;;;;;;2.97;1.90;;;;;;;27.89;39.77;100088.28;5073339;28;20417;-47
2023/09/23 09:15:03;;;;;;;5.60;2.35;;;;;;;27.96;40.05;100090.34;5074841;28;20044;-47
2023/09/23 09:17:33;;;;;;;4.72;2.15;;;;;;;28.10;39.93;100086.63;5084732;28;20052;-48
2023/09/23 09:20:08;;;;;;;3.17;2.63;;;;;;;28.34;40.15;100100.88;5075976;28;20037;-44
2023/09/23 09:22:36;;;;;;;3.35;2.47;;;;;;;28.46;39.91;100097.25;5055706;28;20067;-47
2023/09/23 09:25:04;;;;;;;4.55;1.90;;;;;;;28.64;39.61;100098.59;5075296;28;20063;-48
2023/09/23 09:27:31;;;;;;;2.28;1.92;;;;;;;28.78;38.67;100105.50;5078183;28;20408;-47
2023/09/23 09:29:57;;;;;;;4.50;2.75;;;;;;;28.91;38.49;100108.88;5081257;28;20124;-49
2023/09/23 09:32:42;;;;;;;3.50;2.53;;;;;;;29.06;38.27;100104.16;5074806;28;20040;-51
2023/09/23 09:35:14;;;;;;;4.72;2.00;;;;;;;29.11;37.53;100103.81;5079131;28;20047;-46
2023/09/23 09:37:45;;;;;;;3.85;2.10;;;;;;;29.09;37.81;100103.06;5036527;28;20059;-54
2023/09/23 09:40:21;;;;;;;4.50;0.80;;;;;;;29.15;38.33;100107.91;5074152;28;20558;-54
2023/09/23 09:42:53;;;;;;;3.35;2.05;;;;;;;29.20;38.17;100095.06;5073128;28;20040;-51
2023/09/23 09:45:22;;;;;;;3.80;2.42;;;;;;;29.37;38.59;100104.34;5054971;28;20581;-51
2023/09/23 09:47:51;;;;;;;3.25;2.60;;;;;;;29.59;37.82;100109.78;5081622;28;20076;-52
2023/09/23 09:50:22;;;;;;;3.97;2.67;;;;;;;29.79;37.59;100099.25;5075860;28;20078;-52
2023/09/23 09:52:48;;;;;;;3.47;1.05;;;;;;;29.95;37.50;100099.66;5065747;28;20730;-53
2023/09/23 09:55:19;;;;;;;3.63;2.38;;;;;;;29.95;36.46;100105.00;5080174;28;20075;-45
2023/09/23 09:57:47;;;;;;;5.97;2.75;;;;;;;29.93;37.47;100101.63;5065618;28;20051;-50
2023/09/23 10:00:33;;;;;;;3.70;1.83;;;;;;;29.98;36.95;100103.88;5076176;28;20113;-56
2023/09/23 10:03:05;;;;;;;4.05;2.30;;;;;;;29.92;36.52;100107.09;5073792;28;20044;-52
2023/09/23 10:05:34;;;;;;;4.22;2.15;;;;;;;29.78;36.66;100102.91;5053390;28;20053;-50
2023/09/23 10:08:12;;;;;;;2.78;2.58;;;;;;;29.71;36.44;100103.41;5077617;28;20047;-56
2023/09/23 10:10:46;;;;;;;4.90;2.22;;;;;;;29.65;35.82;100103.91;5064991;28;20137;-48
2023/09/23 10:16:01;;;;;;;4.97;0.90;;;;;;;29.17;35.98;100113.97;5017703;28;20412;-50
2023/09/23 10:18:35;;;;;;;3.45;1.27;;;;;;;29.08;37.18;100112.03;4998178;28;20050;-49
2023/09/23 10:21:03;;;;;;;2.42;0.68;;;;;;;29.03;36.38;100111.53;4998009;28;20042;-54
2023/09/23 10:23:35;;;;;;;5.40;1.08;;;;;;;28.81;36.10;100118.56;5004147;28;20483;-51
2023/09/23 10:26:19;;;;;;;4.57;0.82;;;;;;;28.66;37.20;100118.81;4985882;28;20471;-54
2023/09/23 10:29:04;;;;;;;2.58;0.85;;;;;;;28.52;36.90;100121.69;5002057;28;20058;-49
2023/09/23 10:31:32;;;;;;;1.83;0.98;;;;;;;28.48;36.97;100124.59;5001636;28;20133;-52
2023/09/23 10:34:08;;;;;;;6.63;0.90;;;;;;;28.45;37.30;100130.19;4995329;28;20054;-48
2023/09/23 10:36:36;;;;;;;;;;;;;;;28.45;37.04;100124.84;5002674;28;20058;-50
2023/09/23 10:39:05;;;;;;;6.32;0.88;;;;;;;28.30;36.77;100126.03;5003939;28;20888;-49
2023/09/23 10:41:34;;;;;;;2.58;0.70;;;;;;;28.21;37.71;100131.06;5004425;28;20057;-56
2023/09/23 10:44:02;;;;;;;5.10;1.10;;;;;;;28.26;37.91;100132.53;5036318;28;20479;-52
2023/09/23 10:46:30;;;;;;;4.60;1.25;;;;;;;28.31;37.29;100130.38;5010218;28;20103;-44
2023/09/23 10:48:58;;;;;;;3.15;0.90;;;;;;;28.28;37.36;100133.28;5011573;28;20129;-49
2023/09/23 10:51:26;;;;;;;3.15;1.10;;;;;;;28.30;37.91;100131.38;5025519;28;20125;-48
2023/09/23 10:53:55;;;;;;;4.78;0.82;;;;;;;28.27;37.42;100129.78;5025731;28;20403;-53
2023/09/23 10:56:22;;;;;;;3.70;0.70;;;;;;;28.25;38.14;100131.69;5024024;28;20051;-54
2023/09/23 10:58:51;;;;;;;3.08;0.90;;;;;;;28.25;37.87;100125.50;5021599;28;20137;-45
2023/09/23 11:01:20;;;;;;;4.60;0.77;;;;;;;28.16;38.01;100130.56;5023396;28;20049;-49
2023/09/23 11:03:47;;;;;;;3.65;1.42;;;;;;;28.01;37.42;100134.38;5025233;28;20139;-53
2023/09/23 11:06:16;;;;;;;4.15;1.05;;;;;;;27.64;36.52;100128.19;5024600;28;20051;-49
2023/09/23 11:08:43;;;;;;;2.08;0.70;;;;;;;27.27;36.93;100130.84;5024813;28;20057;-51
2023/09/23 11:11:12;;;;;;;3.80;0.75;;;;;;;27.06;37.90;100134.91;5023939;28;20041;-52
2023/09/23 11:13:40;;;;;;;4.05;0.95;;;;;;;26.85;37.23;100134.59;5022589;28;20057;-50
2023/09/23 11:16:09;;;;;;;4.20;0.60;;;;;;;26.50;37.59;100132.59;5022729;28;20136;-49
2023/09/23 11:18:37;;;;;;;4.10;1.23;;;;;;;26.15;37.88;100137.53;5022971;28;20046;-50
2023/09/23 11:21:05;;;;;;;4.05;0.75;;;;;;;26.03;38.18;100143.66;5021967;28;20059;-46
2023/09/23 11:23:33;;;;;;;3.70;2.60;;;;;;;25.83;38.24;100131.72;5027975;28;20418;-49
2023/09/23 11:26:00;;;;;;;2.08;0.77;;;;;;;25.58;38.38;100131.53;5017271;28;20073;-46
2023/09/23 11:28:27;;;;;;;4.75;0.90;;;;;;;25.49;38.97;100137.38;5008745;28;20108;-53
2023/09/23 11:30:55;;;;;;;1.80;0.50;;;;;;;25.55;38.67;100147.59;5008644;28;20054;-52
2023/09/23 11:33:22;;;;;;;4.28;0.95;;;;;;;25.44;38.30;100142.13;5011322;28;20077;-52
2023/09/23 11:35:49;;;;;;;4.13;0.75;;;;;;;25.48;38.73;100140.97;5012076;28;20052;-52
2023/09/23 11:38:18;;;;;;;3.15;0.90;;;;;;;25.63;39.79;100145.31;5008602;28;20725;-48
2023/09/23 11:40:46;;;;;;;2.90;1.23;;;;;;;25.79;39.07;100139.00;5009993;28;20064;-55